Terminal Aerodrome Forecast
Issued by NWS Paducah, KY

Home | Current Version | Previous Version | Text Only | Print | Product List | Glossary On
Versions: 1 2 3 4 5 6 7 8 9 10 11 12 13 14
000
FTUS43 KPAH 050520
TAFPAH
TAF
KPAH 050520Z 0506/0606 VRB03KT P6SM BKN021
     FM050800 00000KT 3SM BR SCT021
      TEMPO 0508/0512 1SM BR
     FM051500 09007KT P6SM SCT025
     FM060000 08005KT P6SM SCT015 OVC025=

USA.gov is the U.S. government's official web portal to all federal, state and local government web resources and services.